sensor_id;sensor_type;location;lat;lon;timestamp;temperature;humidity
16503;DHT22;53067;48.114;11.694;2023-05-31T00:01:08;16.80;64.80
16503;DHT22;53067;48.114;11.694;2023-05-31T00:03:36;16.60;63.90
16503;DHT22;53067;48.114;11.694;2023-05-31T00:06:05;16.60;58.80
16503;DHT22;53067;48.114;11.694;2023-05-31T00:08:33;16.60;59.00
16503;DHT22;53067;48.114;11.694;2023-05-31T00:11:00;16.50;58.60
16503;DHT22;53067;48.114;11.694;2023-05-31T00:13:28;16.50;58.60
16503;DHT22;53067;48.114;11.694;2023-05-31T00:15:56;16.50;58.50
16503;DHT22;53067;48.114;11.694;2023-05-31T00:18:23;16.40;58.40
16503;DHT22;53067;48.114;11.694;2023-05-31T00:20:51;16.40;58.30
16503;DHT22;53067;48.114;11.694;2023-05-31T00:23:18;16.40;58.40
16503;DHT22;53067;48.114;11.694;2023-05-31T00:25:46;16.30;58.30
16503;DHT22;53067;48.114;11.694;2023-05-31T00:28:14;16.30;58.30
16503;DHT22;53067;48.114;11.694;2023-05-31T00:30:41;16.30;58.30
16503;DHT22;53067;48.114;11.694;2023-05-31T00:33:10;16.30;58.10
16503;DHT22;53067;48.114;11.694;2023-05-31T00:35:38;16.20;58.20
16503;DHT22;53067;48.114;11.694;2023-05-31T00:38:06;16.20;58.30
16503;DHT22;53067;48.114;11.694;2023-05-31T00:40:34;16.10;59.10
16503;DHT22;53067;48.114;11.694;2023-05-31T00:43:01;16.10;58.50
16503;DHT22;53067;48.114;11.694;2023-05-31T00:45:29;16.00;58.50
16503;DHT22;53067;48.114;11.694;2023-05-31T00:48:02;16.00;58.50
16503;DHT22;53067;48.114;11.694;2023-05-31T00:50:31;16.00;58.50
16503;DHT22;53067;48.114;11.694;2023-05-31T00:53:00;16.00;58.40
16503;DHT22;53067;48.114;11.694;2023-05-31T00:55:29;15.90;57.80
16503;DHT22;53067;48.114;11.694;2023-05-31T00:57:58;15.90;58.40
16503;DHT22;53067;48.114;11.694;2023-05-31T01:00:27;15.90;58.40
16503;DHT22;53067;48.114;11.694;2023-05-31T01:02:55;15.90;58.10
16503;DHT22;53067;48.114;11.694;2023-05-31T01:05:22;15.90;58.20
16503;DHT22;53067;48.114;11.694;2023-05-31T01:07:50;15.80;58.30
16503;DHT22;53067;48.114;11.694;2023-05-31T01:10:20;15.80;58.20
16503;DHT22;53067;48.114;11.694;2023-05-31T01:13:05;15.80;58.30
16503;DHT22;53067;48.114;11.694;2023-05-31T01:15:44;15.80;58.50
16503;DHT22;53067;48.114;11.694;2023-05-31T01:20:51;15.60;58.40
16503;DHT22;53067;48.114;11.694;2023-05-31T01:29:09;15.50;58.70
16503;DHT22;53067;48.114;11.694;2023-05-31T01:31:34;15.50;58.30
16503;DHT22;53067;48.114;11.694;2023-05-31T01:34:03;15.40;58.30
16503;DHT22;53067;48.114;11.694;2023-05-31T01:36:31;15.40;58.20
16503;DHT22;53067;48.114;11.694;2023-05-31T01:39:00;15.40;58.50
16503;DHT22;53067;48.114;11.694;2023-05-31T01:41:28;15.30;58.70
16503;DHT22;53067;48.114;11.694;2023-05-31T01:43:58;15.30;58.90
16503;DHT22;53067;48.114;11.694;2023-05-31T01:49:14;15.20;58.20
16503;DHT22;53067;48.114;11.694;2023-05-31T01:51:43;15.20;58.90
16503;DHT22;53067;48.114;11.694;2023-05-31T01:54:12;15.20;58.90
16503;DHT22;53067;48.114;11.694;2023-05-31T01:56:40;15.10;59.20
16503;DHT22;53067;48.114;11.694;2023-05-31T01:59:10;15.00;59.70
16503;DHT22;53067;48.114;11.694;2023-05-31T02:01:39;15.00;60.10
16503;DHT22;53067;48.114;11.694;2023-05-31T02:04:07;14.90;60.10
16503;DHT22;53067;48.114;11.694;2023-05-31T02:06:36;14.80;60.80
16503;DHT22;53067;48.114;11.694;2023-05-31T02:09:05;14.80;61.40
16503;DHT22;53067;48.114;11.694;2023-05-31T02:11:33;14.80;61.80
16503;DHT22;53067;48.114;11.694;2023-05-31T02:14:00;14.70;61.60
16503;DHT22;53067;48.114;11.694;2023-05-31T02:16:28;14.70;61.30
16503;DHT22;53067;48.114;11.694;2023-05-31T02:18:56;14.70;61.60
16503;DHT22;53067;48.114;11.694;2023-05-31T02:21:25;14.60;62.40
16503;DHT22;53067;48.114;11.694;2023-05-31T02:23:52;14.60;62.70
16503;DHT22;53067;48.114;11.694;2023-05-31T02:26:20;14.60;62.60
16503;DHT22;53067;48.114;11.694;2023-05-31T02:28:48;14.50;62.70
16503;DHT22;53067;48.114;11.694;2023-05-31T02:31:16;14.50;62.70
16503;DHT22;53067;48.114;11.694;2023-05-31T02:33:43;14.50;62.70
16503;DHT22;53067;48.114;11.694;2023-05-31T02:36:11;14.40;63.10
16503;DHT22;53067;48.114;11.694;2023-05-31T02:38:39;14.30;63.20
16503;DHT22;53067;48.114;11.694;2023-05-31T02:41:06;14.30;63.20
16503;DHT22;53067;48.114;11.694;2023-05-31T02:43:34;14.30;63.40
16503;DHT22;53067;48.114;11.694;2023-05-31T02:46:01;14.20;63.50
16503;DHT22;53067;48.114;11.694;2023-05-31T02:48:29;14.20;64.40
16503;DHT22;53067;48.114;11.694;2023-05-31T02:50:56;14.10;64.20
16503;DHT22;53067;48.114;11.694;2023-05-31T02:53:24;14.10;64.40
16503;DHT22;53067;48.114;11.694;2023-05-31T02:55:53;14.10;64.40
16503;DHT22;53067;48.114;11.694;2023-05-31T02:58:20;14.10;64.70
16503;DHT22;53067;48.114;11.694;2023-05-31T03:00:48;14.10;65.00
16503;DHT22;53067;48.114;11.694;2023-05-31T03:03:15;14.10;64.70
16503;DHT22;53067;48.114;11.694;2023-05-31T03:05:45;14.00;64.60
16503;DHT22;53067;48.114;11.694;2023-05-31T03:08:12;14.00;65.00
16503;DHT22;53067;48.114;11.694;2023-05-31T03:10:41;14.10;65.00
16503;DHT22;53067;48.114;11.694;2023-05-31T03:13:09;14.00;64.80
16503;DHT22;53067;48.114;11.694;2023-05-31T03:15:37;14.00;65.00
16503;DHT22;53067;48.114;11.694;2023-05-31T03:18:04;14.00;65.10
16503;DHT22;53067;48.114;11.694;2023-05-31T03:20:32;14.00;65.10
16503;DHT22;53067;48.114;11.694;2023-05-31T03:23:00;14.00;65.10
16503;DHT22;53067;48.114;11.694;2023-05-31T03:25:27;14.00;64.90
16503;DHT22;53067;48.114;11.694;2023-05-31T03:27:55;14.00;64.70
16503;DHT22;53067;48.114;11.694;2023-05-31T03:30:23;13.90;64.60
16503;DHT22;53067;48.114;11.694;2023-05-31T03:32:51;13.90;64.80
16503;DHT22;53067;48.114;11.694;2023-05-31T03:35:19;13.90;64.70
16503;DHT22;53067;48.114;11.694;2023-05-31T03:37:46;13.90;64.80
16503;DHT22;53067;48.114;11.694;2023-05-31T03:40:14;13.90;64.70
16503;DHT22;53067;48.114;11.694;2023-05-31T03:42:41;13.90;64.70
16503;DHT22;53067;48.114;11.694;2023-05-31T03:47:57;13.90;64.20
16503;DHT22;53067;48.114;11.694;2023-05-31T03:50:25;13.90;64.60
16503;DHT22;53067;48.114;11.694;2023-05-31T03:52:52;13.90;64.10
16503;DHT22;53067;48.114;11.694;2023-05-31T03:55:20;13.90;64.00
16503;DHT22;53067;48.114;11.694;2023-05-31T03:57:47;13.90;63.60
16503;DHT22;53067;48.114;11.694;2023-05-31T04:00:16;14.00;63.60
16503;DHT22;53067;48.114;11.694;2023-05-31T04:02:43;14.00;63.40
16503;DHT22;53067;48.114;11.694;2023-05-31T04:05:11;14.00;63.50
16503;DHT22;53067;48.114;11.694;2023-05-31T04:07:38;14.00;64.10
16503;DHT22;53067;48.114;11.694;2023-05-31T04:10:07;14.00;64.10
16503;DHT22;53067;48.114;11.694;2023-05-31T04:12:34;14.10;64.10
16503;DHT22;53067;48.114;11.694;2023-05-31T04:15:02;14.10;64.10
16503;DHT22;53067;48.114;11.694;2023-05-31T04:17:29;14.10;64.20
16503;DHT22;53067;48.114;11.694;2023-05-31T04:19:57;14.10;63.70
16503;DHT22;53067;48.114;11.694;2023-05-31T04:22:24;14.10;63.90
16503;DHT22;53067;48.114;11.694;2023-05-31T04:24:52;14.20;64.50
16503;DHT22;53067;48.114;11.694;2023-05-31T04:27:19;14.20;63.90
16503;DHT22;53067;48.114;11.694;2023-05-31T04:29:47;14.20;63.40
16503;DHT22;53067;48.114;11.694;2023-05-31T04:32:16;14.20;63.70
16503;DHT22;53067;48.114;11.694;2023-05-31T04:34:46;14.20;63.90
16503;DHT22;53067;48.114;11.694;2023-05-31T04:37:15;14.30;63.70
16503;DHT22;53067;48.114;11.694;2023-05-31T04:39:42;14.30;63.40
16503;DHT22;53067;48.114;11.694;2023-05-31T04:42:10;14.30;63.70
16503;DHT22;53067;48.114;11.694;2023-05-31T04:44:38;14.40;63.60
16503;DHT22;53067;48.114;11.694;2023-05-31T04:47:06;14.40;63.20
16503;DHT22;53067;48.114;11.694;2023-05-31T04:49:33;14.40;63.00
16503;DHT22;53067;48.114;11.694;2023-05-31T04:52:01;14.50;63.20
16503;DHT22;53067;48.114;11.694;2023-05-31T04:54:29;14.50;62.80
16503;DHT22;53067;48.114;11.694;2023-05-31T04:56:57;14.60;63.40
16503;DHT22;53067;48.114;11.694;2023-05-31T04:59:26;14.60;63.20
16503;DHT22;53067;48.114;11.694;2023-05-31T05:01:53;14.70;62.80
16503;DHT22;53067;48.114;11.694;2023-05-31T05:04:21;14.70;62.30
16503;DHT22;53067;48.114;11.694;2023-05-31T05:06:48;14.80;62.50
16503;DHT22;53067;48.114;11.694;2023-05-31T05:09:16;14.80;62.80
16503;DHT22;53067;48.114;11.694;2023-05-31T05:11:43;14.80;63.30
16503;DHT22;53067;48.114;11.694;2023-05-31T05:14:11;14.80;63.10
16503;DHT22;53067;48.114;11.694;2023-05-31T05:16:38;14.90;62.80
16503;DHT22;53067;48.114;11.694;2023-05-31T05:19:06;15.00;62.80
16503;DHT22;53067;48.114;11.694;2023-05-31T05:21:33;15.00;63.00
16503;DHT22;53067;48.114;11.694;2023-05-31T05:24:01;15.10;62.60
16503;DHT22;53067;48.114;11.694;2023-05-31T05:26:29;15.10;62.40
16503;DHT22;53067;48.114;11.694;2023-05-31T05:28:56;15.20;61.60
16503;DHT22;53067;48.114;11.694;2023-05-31T05:31:24;15.30;61.10
16503;DHT22;53067;48.114;11.694;2023-05-31T05:33:51;15.30;60.90
16503;DHT22;53067;48.114;11.694;2023-05-31T05:36:19;15.40;61.30
16503;DHT22;53067;48.114;11.694;2023-05-31T05:38:47;15.40;60.80
16503;DHT22;53067;48.114;11.694;2023-05-31T05:41:14;15.40;60.40
16503;DHT22;53067;48.114;11.694;2023-05-31T05:43:42;15.40;60.40
16503;DHT22;53067;48.114;11.694;2023-05-31T05:46:10;15.50;60.00
16503;DHT22;53067;48.114;11.694;2023-05-31T05:48:37;15.60;60.40
16503;DHT22;53067;48.114;11.694;2023-05-31T05:51:05;15.70;60.50
16503;DHT22;53067;48.114;11.694;2023-05-31T05:53:32;15.70;60.30
16503;DHT22;53067;48.114;11.694;2023-05-31T05:56:00;15.80;59.90
16503;DHT22;53067;48.114;11.694;2023-05-31T05:58:27;15.80;59.80
16503;DHT22;53067;48.114;11.694;2023-05-31T06:00:55;15.90;60.20
16503;DHT22;53067;48.114;11.694;2023-05-31T06:03:23;15.90;60.20
16503;DHT22;53067;48.114;11.694;2023-05-31T06:05:50;16.00;59.90
16503;DHT22;53067;48.114;11.694;2023-05-31T06:08:18;16.10;59.70
16503;DHT22;53067;48.114;11.694;2023-05-31T06:10:45;16.20;59.60
16503;DHT22;53067;48.114;11.694;2023-05-31T06:13:13;16.20;60.00
16503;DHT22;53067;48.114;11.694;2023-05-31T06:15:41;16.30;59.80
16503;DHT22;53067;48.114;11.694;2023-05-31T06:18:09;16.40;59.20
16503;DHT22;53067;48.114;11.694;2023-05-31T06:20:36;16.40;60.10
16503;DHT22;53067;48.114;11.694;2023-05-31T06:23:04;16.50;59.40
16503;DHT22;53067;48.114;11.694;2023-05-31T06:25:32;16.60;59.00
16503;DHT22;53067;48.114;11.694;2023-05-31T06:28:01;16.70;58.50
16503;DHT22;53067;48.114;11.694;2023-05-31T06:30:29;16.80;58.20
16503;DHT22;53067;48.114;11.694;2023-05-31T06:32:57;16.80;58.20
16503;DHT22;53067;48.114;11.694;2023-05-31T06:35:24;16.90;58.10
16503;DHT22;53067;48.114;11.694;2023-05-31T06:37:52;17.00;58.10
16503;DHT22;53067;48.114;11.694;2023-05-31T06:40:19;17.10;57.90
16503;DHT22;53067;48.114;11.694;2023-05-31T06:42:47;17.10;57.80
16503;DHT22;53067;48.114;11.694;2023-05-31T06:45:14;17.20;57.80
16503;DHT22;53067;48.114;11.694;2023-05-31T06:47:42;17.30;57.60
16503;DHT22;53067;48.114;11.694;2023-05-31T06:50:11;17.40;57.40
16503;DHT22;53067;48.114;11.694;2023-05-31T06:52:41;17.50;56.90
16503;DHT22;53067;48.114;11.694;2023-05-31T06:55:09;17.60;56.20
16503;DHT22;53067;48.114;11.694;2023-05-31T06:57:36;17.70;55.80
16503;DHT22;53067;48.114;11.694;2023-05-31T07:00:04;17.80;54.30
16503;DHT22;53067;48.114;11.694;2023-05-31T07:02:33;17.90;54.20
16503;DHT22;53067;48.114;11.694;2023-05-31T07:05:01;18.00;54.10
16503;DHT22;53067;48.114;11.694;2023-05-31T07:07:29;18.10;53.50
16503;DHT22;53067;48.114;11.694;2023-05-31T07:09:56;18.20;53.70
16503;DHT22;53067;48.114;11.694;2023-05-31T07:12:24;18.30;53.80
16503;DHT22;53067;48.114;11.694;2023-05-31T07:14:51;18.40;53.10
16503;DHT22;53067;48.114;11.694;2023-05-31T07:17:19;18.50;52.60
16503;DHT22;53067;48.114;11.694;2023-05-31T07:19:47;18.50;52.30
16503;DHT22;53067;48.114;11.694;2023-05-31T07:22:16;18.60;52.70
16503;DHT22;53067;48.114;11.694;2023-05-31T07:24:44;18.70;52.30
16503;DHT22;53067;48.114;11.694;2023-05-31T07:27:12;18.80;52.40
16503;DHT22;53067;48.114;11.694;2023-05-31T07:29:39;18.90;53.10
16503;DHT22;53067;48.114;11.694;2023-05-31T07:32:07;19.00;52.30
16503;DHT22;53067;48.114;11.694;2023-05-31T07:34:35;19.10;51.90
16503;DHT22;53067;48.114;11.694;2023-05-31T07:37:02;19.10;51.20
16503;DHT22;53067;48.114;11.694;2023-05-31T07:39:30;19.20;51.50
16503;DHT22;53067;48.114;11.694;2023-05-31T07:41:57;19.30;51.10
16503;DHT22;53067;48.114;11.694;2023-05-31T07:44:25;19.40;51.30
16503;DHT22;53067;48.114;11.694;2023-05-31T07:46:53;19.50;50.00
16503;DHT22;53067;48.114;11.694;2023-05-31T07:49:20;19.50;50.40
16503;DHT22;53067;48.114;11.694;2023-05-31T07:51:48;19.50;50.40
16503;DHT22;53067;48.114;11.694;2023-05-31T07:54:15;19.60;50.50
16503;DHT22;53067;48.114;11.694;2023-05-31T07:56:43;19.60;50.60
16503;DHT22;53067;48.114;11.694;2023-05-31T07:59:11;19.70;50.10
16503;DHT22;53067;48.114;11.694;2023-05-31T08:01:39;19.80;50.20
16503;DHT22;53067;48.114;11.694;2023-05-31T08:04:12;19.90;49.60
16503;DHT22;53067;48.114;11.694;2023-05-31T08:06:37;20.00;49.90
16503;DHT22;53067;48.114;11.694;2023-05-31T08:09:05;20.10;50.00
16503;DHT22;53067;48.114;11.694;2023-05-31T08:11:33;20.20;49.80
16503;DHT22;53067;48.114;11.694;2023-05-31T08:14:03;20.30;50.10
16503;DHT22;53067;48.114;11.694;2023-05-31T08:16:32;20.40;49.00
16503;DHT22;53067;48.114;11.694;2023-05-31T08:19:00;20.50;48.10
16503;DHT22;53067;48.114;11.694;2023-05-31T08:21:28;20.60;48.50
16503;DHT22;53067;48.114;11.694;2023-05-31T08:24:01;20.60;49.10
16503;DHT22;53067;48.114;11.694;2023-05-31T08:26:29;20.70;49.00
16503;DHT22;53067;48.114;11.694;2023-05-31T08:28:56;20.80;48.90
16503;DHT22;53067;48.114;11.694;2023-05-31T08:31:24;20.90;48.60
16503;DHT22;53067;48.114;11.694;2023-05-31T08:33:56;20.90;47.90
16503;DHT22;53067;48.114;11.694;2023-05-31T08:36:24;21.00;48.20
16503;DHT22;53067;48.114;11.694;2023-05-31T08:38:53;21.00;47.10
16503;DHT22;53067;48.114;11.694;2023-05-31T08:41:22;21.10;46.80
16503;DHT22;53067;48.114;11.694;2023-05-31T08:43:49;21.10;47.00
16503;DHT22;53067;48.114;11.694;2023-05-31T08:46:19;21.30;46.50
16503;DHT22;53067;48.114;11.694;2023-05-31T08:49:00;21.30;45.90
16503;DHT22;53067;48.114;11.694;2023-05-31T08:51:27;21.40;46.00
16503;DHT22;53067;48.114;11.694;2023-05-31T08:53:56;21.50;46.00
16503;DHT22;53067;48.114;11.694;2023-05-31T08:56:25;21.60;45.10
16503;DHT22;53067;48.114;11.694;2023-05-31T08:58:54;21.70;46.10
16503;DHT22;53067;48.114;11.694;2023-05-31T09:01:22;21.80;45.50
16503;DHT22;53067;48.114;11.694;2023-05-31T09:03:52;21.80;44.40
16503;DHT22;53067;48.114;11.694;2023-05-31T09:06:20;21.90;44.90
16503;DHT22;53067;48.114;11.694;2023-05-31T09:08:47;22.00;44.20
16503;DHT22;53067;48.114;11.694;2023-05-31T09:11:15;22.10;43.90
16503;DHT22;53067;48.114;11.694;2023-05-31T09:13:43;22.10;43.70
16503;DHT22;53067;48.114;11.694;2023-05-31T09:16:11;22.20;42.50
16503;DHT22;53067;48.114;11.694;2023-05-31T09:21:45;22.30;41.30
16503;DHT22;53067;48.114;11.694;2023-05-31T09:24:15;22.50;42.10
16503;DHT22;53067;48.114;11.694;2023-05-31T09:29:36;22.50;43.10
16503;DHT22;53067;48.114;11.694;2023-05-31T09:32:10;22.60;41.50
16503;DHT22;53067;48.114;11.694;2023-05-31T09:34:37;22.70;40.80
16503;DHT22;53067;48.114;11.694;2023-05-31T09:37:06;22.80;40.40
16503;DHT22;53067;48.114;11.694;2023-05-31T09:39:34;22.80;39.80
16503;DHT22;53067;48.114;11.694;2023-05-31T09:42:08;22.90;39.20
16503;DHT22;53067;48.114;11.694;2023-05-31T09:44:32;23.00;40.80
16503;DHT22;53067;48.114;11.694;2023-05-31T09:47:07;23.00;39.70
16503;DHT22;53067;48.114;11.694;2023-05-31T09:49:35;23.00;38.80
16503;DHT22;53067;48.114;11.694;2023-05-31T09:52:03;23.00;39.70
16503;DHT22;53067;48.114;11.694;2023-05-31T09:54:32;23.10;38.90
16503;DHT22;53067;48.114;11.694;2023-05-31T09:57:01;23.20;39.60
16503;DHT22;53067;48.114;11.694;2023-05-31T09:59:31;23.20;40.00
16503;DHT22;53067;48.114;11.694;2023-05-31T10:02:11;23.30;38.40
16503;DHT22;53067;48.114;11.694;2023-05-31T10:04:39;23.40;39.20
16503;DHT22;53067;48.114;11.694;2023-05-31T10:07:07;23.40;44.30
16503;DHT22;53067;48.114;11.694;2023-05-31T10:09:35;23.60;43.20
16503;DHT22;53067;48.114;11.694;2023-05-31T10:12:03;23.60;41.00
16503;DHT22;53067;48.114;11.694;2023-05-31T10:14:39;23.60;41.00
16503;DHT22;53067;48.114;11.694;2023-05-31T10:17:11;23.60;47.30
16503;DHT22;53067;48.114;11.694;2023-05-31T10:19:41;23.20;47.70
16503;DHT22;53067;48.114;11.694;2023-05-31T10:22:10;23.90;38.30
16503;DHT22;53067;48.114;11.694;2023-05-31T10:24:57;24.10;40.10
16503;DHT22;53067;48.114;11.694;2023-05-31T10:27:33;24.10;37.60
16503;DHT22;53067;48.114;11.694;2023-05-31T10:30:00;24.20;40.30
16503;DHT22;53067;48.114;11.694;2023-05-31T10:32:43;24.20;40.70
16503;DHT22;53067;48.114;11.694;2023-05-31T10:35:22;24.20;41.00
16503;DHT22;53067;48.114;11.694;2023-05-31T10:37:53;24.30;38.00
16503;DHT22;53067;48.114;11.694;2023-05-31T10:40:48;24.30;40.90
16503;DHT22;53067;48.114;11.694;2023-05-31T10:45:55;24.40;52.10
16503;DHT22;53067;48.114;11.694;2023-05-31T10:51:01;24.80;38.60
16503;DHT22;53067;48.114;11.694;2023-05-31T10:53:37;24.50;48.30
16503;DHT22;53067;48.114;11.694;2023-05-31T10:56:07;24.70;37.50
16503;DHT22;53067;48.114;11.694;2023-05-31T11:01:40;24.80;58.90
16503;DHT22;53067;48.114;11.694;2023-05-31T11:04:22;24.80;58.50
16503;DHT22;53067;48.114;11.694;2023-05-31T11:09:20;24.90;79.50
16503;DHT22;53067;48.114;11.694;2023-05-31T11:11:50;24.90;77.90
16503;DHT22;53067;48.114;11.694;2023-05-31T11:14:23;25.00;76.40
16503;DHT22;53067;48.114;11.694;2023-05-31T11:19:36;25.10;36.60
16503;DHT22;53067;48.114;11.694;2023-05-31T11:22:09;25.20;35.20
16503;DHT22;53067;48.114;11.694;2023-05-31T11:27:37;25.20;36.30
16503;DHT22;53067;48.114;11.694;2023-05-31T11:30:13;25.20;37.10
16503;DHT22;53067;48.114;11.694;2023-05-31T11:35:17;25.30;37.10
16503;DHT22;53067;48.114;11.694;2023-05-31T11:37:44;25.40;35.80
16503;DHT22;53067;48.114;11.694;2023-05-31T11:40:15;25.50;36.80
16503;DHT22;53067;48.114;11.694;2023-05-31T11:42:43;25.60;36.40
16503;DHT22;53067;48.114;11.694;2023-05-31T11:45:15;25.70;35.80
16503;DHT22;53067;48.114;11.694;2023-05-31T11:48:06;25.70;36.50
16503;DHT22;53067;48.114;11.694;2023-05-31T11:50:32;25.80;35.60
16503;DHT22;53067;48.114;11.694;2023-05-31T11:53:03;25.80;35.20
16503;DHT22;53067;48.114;11.694;2023-05-31T11:55:32;25.80;34.70
16503;DHT22;53067;48.114;11.694;2023-05-31T11:58:04;25.80;35.20
16503;DHT22;53067;48.114;11.694;2023-05-31T12:00:31;25.90;34.90
16503;DHT22;53067;48.114;11.694;2023-05-31T12:02:58;26.00;35.80
16503;DHT22;53067;48.114;11.694;2023-05-31T12:05:27;26.10;34.70
16503;DHT22;53067;48.114;11.694;2023-05-31T12:07:56;26.20;35.90
16503;DHT22;53067;48.114;11.694;2023-05-31T12:13:18;26.40;35.80
16503;DHT22;53067;48.114;11.694;2023-05-31T12:15:52;26.40;35.60
16503;DHT22;53067;48.114;11.694;2023-05-31T12:18:21;26.40;34.70
16503;DHT22;53067;48.114;11.694;2023-05-31T12:20:49;26.50;35.00
16503;DHT22;53067;48.114;11.694;2023-05-31T12:26:05;26.60;33.70
16503;DHT22;53067;48.114;11.694;2023-05-31T12:28:32;26.70;33.40
16503;DHT22;53067;48.114;11.694;2023-05-31T12:31:00;26.70;34.60
16503;DHT22;53067;48.114;11.694;2023-05-31T12:33:28;26.70;34.30
16503;DHT22;53067;48.114;11.694;2023-05-31T12:35:57;26.80;34.70
16503;DHT22;53067;48.114;11.694;2023-05-31T12:38:28;26.80;35.20
16503;DHT22;53067;48.114;11.694;2023-05-31T12:40:58;26.90;33.90
16503;DHT22;53067;48.114;11.694;2023-05-31T12:43:28;26.90;33.50
16503;DHT22;53067;48.114;11.694;2023-05-31T12:45:57;26.90;33.30
16503;DHT22;53067;48.114;11.694;2023-05-31T12:48:24;27.00;33.70
16503;DHT22;53067;48.114;11.694;2023-05-31T12:50:52;27.10;32.50
16503;DHT22;53067;48.114;11.694;2023-05-31T12:53:21;27.10;32.90
16503;DHT22;53067;48.114;11.694;2023-05-31T12:55:50;27.20;33.20
16503;DHT22;53067;48.114;11.694;2023-05-31T12:58:18;27.30;33.20
16503;DHT22;53067;48.114;11.694;2023-05-31T13:00:45;27.30;32.80
16503;DHT22;53067;48.114;11.694;2023-05-31T13:03:13;27.30;32.90
16503;DHT22;53067;48.114;11.694;2023-05-31T13:05:41;27.40;33.30
16503;DHT22;53067;48.114;11.694;2023-05-31T13:08:08;27.40;33.00
16503;DHT22;53067;48.114;11.694;2023-05-31T13:10:36;27.50;33.00
16503;DHT22;53067;48.114;11.694;2023-05-31T13:13:04;27.50;32.30
16503;DHT22;53067;48.114;11.694;2023-05-31T13:15:31;27.60;32.20
16503;DHT22;53067;48.114;11.694;2023-05-31T13:17:59;27.70;32.90
16503;DHT22;53067;48.114;11.694;2023-05-31T13:20:26;27.80;32.40
16503;DHT22;53067;48.114;11.694;2023-05-31T13:22:54;27.80;32.60
16503;DHT22;53067;48.114;11.694;2023-05-31T13:25:22;27.80;32.30
16503;DHT22;53067;48.114;11.694;2023-05-31T13:27:49;27.80;32.50
16503;DHT22;53067;48.114;11.694;2023-05-31T13:30:17;27.90;32.40
16503;DHT22;53067;48.114;11.694;2023-05-31T13:32:44;27.80;32.90
16503;DHT22;53067;48.114;11.694;2023-05-31T13:35:12;27.80;32.70
16503;DHT22;53067;48.114;11.694;2023-05-31T13:37:40;27.80;32.70
16503;DHT22;53067;48.114;11.694;2023-05-31T13:40:10;27.90;32.10
16503;DHT22;53067;48.114;11.694;2023-05-31T13:42:37;27.90;32.00
16503;DHT22;53067;48.114;11.694;2023-05-31T13:45:05;28.00;31.40
16503;DHT22;53067;48.114;11.694;2023-05-31T13:47:37;28.00;30.70
16503;DHT22;53067;48.114;11.694;2023-05-31T13:50:06;27.90;30.60
16503;DHT22;53067;48.114;11.694;2023-05-31T13:52:33;28.00;30.30
16503;DHT22;53067;48.114;11.694;2023-05-31T13:55:01;28.00;30.00
16503;DHT22;53067;48.114;11.694;2023-05-31T13:57:28;28.10;30.00
16503;DHT22;53067;48.114;11.694;2023-05-31T13:59:56;28.20;29.30
16503;DHT22;53067;48.114;11.694;2023-05-31T14:02:24;28.20;29.80
16503;DHT22;53067;48.114;11.694;2023-05-31T14:04:51;28.30;29.80
16503;DHT22;53067;48.114;11.694;2023-05-31T14:07:19;28.50;29.20
16503;DHT22;53067;48.114;11.694;2023-05-31T14:09:46;28.40;28.90
16503;DHT22;53067;48.114;11.694;2023-05-31T14:12:14;28.40;29.40
16503;DHT22;53067;48.114;11.694;2023-05-31T14:14:41;28.50;30.00
16503;DHT22;53067;48.114;11.694;2023-05-31T14:17:09;28.60;29.90
16503;DHT22;53067;48.114;11.694;2023-05-31T14:19:37;28.70;29.60
16503;DHT22;53067;48.114;11.694;2023-05-31T14:22:05;28.70;28.80
16503;DHT22;53067;48.114;11.694;2023-05-31T14:24:32;28.80;28.10
16503;DHT22;53067;48.114;11.694;2023-05-31T14:27:00;29.10;28.80
16503;DHT22;53067;48.114;11.694;2023-05-31T14:29:27;29.50;27.70
16503;DHT22;53067;48.114;11.694;2023-05-31T14:31:55;29.90;27.00
16503;DHT22;53067;48.114;11.694;2023-05-31T14:34:22;30.30;26.80
16503;DHT22;53067;48.114;11.694;2023-05-31T14:36:52;30.40;26.20
16503;DHT22;53067;48.114;11.694;2023-05-31T14:39:20;30.80;25.50
16503;DHT22;53067;48.114;11.694;2023-05-31T14:41:48;31.10;25.90
16503;DHT22;53067;48.114;11.694;2023-05-31T14:44:15;31.40;25.60
16503;DHT22;53067;48.114;11.694;2023-05-31T14:46:43;31.50;25.30
16503;DHT22;53067;48.114;11.694;2023-05-31T14:49:10;31.30;25.20
16503;DHT22;53067;48.114;11.694;2023-05-31T14:51:38;31.20;26.40
16503;DHT22;53067;48.114;11.694;2023-05-31T14:54:05;30.80;27.10
16503;DHT22;53067;48.114;11.694;2023-05-31T14:56:33;30.50;27.70
16503;DHT22;53067;48.114;11.694;2023-05-31T14:59:00;30.30;28.10
16503;DHT22;53067;48.114;11.694;2023-05-31T15:01:28;30.00;28.00
16503;DHT22;53067;48.114;11.694;2023-05-31T15:03:55;29.80;28.90
16503;DHT22;53067;48.114;11.694;2023-05-31T15:06:23;29.50;29.20
16503;DHT22;53067;48.114;11.694;2023-05-31T15:08:51;29.20;29.90
16503;DHT22;53067;48.114;11.694;2023-05-31T15:11:19;28.90;30.40
16503;DHT22;53067;48.114;11.694;2023-05-31T15:13:47;28.70;30.50
16503;DHT22;53067;48.114;11.694;2023-05-31T15:16:14;28.50;30.50
16503;DHT22;53067;48.114;11.694;2023-05-31T15:18:42;28.30;30.80
16503;DHT22;53067;48.114;11.694;2023-05-31T15:21:09;28.20;30.60
16503;DHT22;53067;48.114;11.694;2023-05-31T15:23:37;28.10;31.50
16503;DHT22;53067;48.114;11.694;2023-05-31T15:26:04;27.80;32.10
16503;DHT22;53067;48.114;11.694;2023-05-31T15:28:32;27.70;32.00
16503;DHT22;53067;48.114;11.694;2023-05-31T15:30:59;27.60;32.40
16503;DHT22;53067;48.114;11.694;2023-05-31T15:33:31;27.50;33.20
16503;DHT22;53067;48.114;11.694;2023-05-31T15:35:59;27.50;32.80
16503;DHT22;53067;48.114;11.694;2023-05-31T15:38:26;27.40;32.90
16503;DHT22;53067;48.114;11.694;2023-05-31T15:40:54;27.40;33.70
16503;DHT22;53067;48.114;11.694;2023-05-31T15:43:27;27.40;33.80
16503;DHT22;53067;48.114;11.694;2023-05-31T15:45:55;27.30;34.10
16503;DHT22;53067;48.114;11.694;2023-05-31T15:48:23;27.20;34.60
16503;DHT22;53067;48.114;11.694;2023-05-31T15:50:51;27.10;34.60
16503;DHT22;53067;48.114;11.694;2023-05-31T15:53:18;27.10;34.00
16503;DHT22;53067;48.114;11.694;2023-05-31T15:55:46;27.00;34.50
16503;DHT22;53067;48.114;11.694;2023-05-31T15:58:14;26.90;34.00
16503;DHT22;53067;48.114;11.694;2023-05-31T16:00:41;26.80;34.40
16503;DHT22;53067;48.114;11.694;2023-05-31T16:03:09;26.80;34.80
16503;DHT22;53067;48.114;11.694;2023-05-31T16:05:36;26.80;34.60
16503;DHT22;53067;48.114;11.694;2023-05-31T16:08:04;26.70;35.20